createdAt,value
2022-10-08T00:00:03.867Z,67.93
2022-10-08T00:02:39.382Z,68.14
2022-10-08T00:05:07.952Z,68.47
2022-10-08T00:07:35.716Z,69.64
2022-10-08T00:10:06.230Z,68.97
2022-10-08T00:12:33.949Z,68.75
2022-10-08T00:15:03.389Z,68.50
2022-10-08T00:17:31.126Z,68.86
2022-10-08T00:19:58.885Z,69.08
2022-10-08T00:22:26.631Z,69.12
2022-10-08T00:24:56.546Z,68.35
2022-10-08T00:27:24.390Z,69.55
2022-10-08T00:29:52.882Z,69.61
2022-10-08T00:32:21.977Z,69.39
2022-10-08T00:34:49.665Z,68.91
2022-10-08T00:37:17.413Z,68.81
2022-10-08T00:39:45.431Z,68.63
2022-10-08T00:42:13.637Z,68.84
2022-10-08T00:44:52.453Z,69.34
2022-10-08T00:47:26.506Z,68.42
2022-10-08T00:49:55.968Z,68.74
2022-10-08T00:52:24.062Z,68.52
2022-10-08T00:54:51.873Z,68.78
2022-10-08T00:57:20.217Z,68.86
2022-10-08T00:59:48.005Z,69.01
2022-10-08T01:02:16.000Z,68.73
2022-10-08T01:04:45.182Z,68.73
2022-10-08T01:07:17.402Z,68.65
2022-10-08T01:09:50.128Z,68.91
2022-10-08T01:12:24.463Z,69.39
2022-10-08T01:14:56.790Z,70.04
2022-10-08T01:17:28.975Z,69.68
2022-10-08T01:20:27.377Z,69.22
2022-10-08T01:23:10.260Z,70.13
2022-10-08T01:25:41.732Z,70.03
2022-10-08T01:28:15.785Z,70.14
2022-10-08T01:30:48.386Z,70.01
2022-10-08T01:33:20.456Z,69.73
2022-10-08T01:35:53.864Z,70.55
2022-10-08T01:38:23.646Z,70.64
2022-10-08T01:40:52.909Z,70.62
2022-10-08T01:43:23.698Z,71.18
2022-10-08T01:45:54.279Z,70.99
2022-10-08T01:48:24.724Z,70.02
2022-10-08T01:50:54.948Z,70.16
2022-10-08T01:53:25.696Z,70.29
2022-10-08T01:55:54.641Z,70.41
2022-10-08T01:58:28.986Z,70.32
2022-10-08T02:00:58.309Z,70.30
2022-10-08T02:03:26.185Z,70.45
2022-10-08T02:05:55.875Z,70.94
2022-10-08T02:08:24.478Z,70.91
2022-10-08T02:10:52.965Z,71.32
2022-10-08T02:13:21.081Z,70.80
2022-10-08T02:15:55.170Z,70.45
2022-10-08T02:18:31.049Z,70.73
2022-10-08T02:21:00.953Z,71.44
2022-10-08T02:23:31.586Z,71.86
2022-10-08T02:26:00.583Z,71.62
2022-10-08T02:28:32.915Z,71.74
2022-10-08T02:31:07.643Z,71.76
2022-10-08T02:33:39.294Z,71.79
2022-10-08T02:36:08.802Z,71.74
2022-10-08T02:38:40.119Z,71.63
2022-10-08T02:41:09.253Z,70.74
2022-10-08T02:43:40.113Z,71.36
2022-10-08T02:46:13.454Z,71.80
2022-10-08T02:48:44.922Z,72.14
2022-10-08T02:51:15.596Z,71.87
2022-10-08T02:53:43.941Z,72.27
2022-10-08T02:56:16.538Z,72.36
2022-10-08T02:58:45.827Z,72.25
2022-10-08T03:01:18.658Z,71.38
2022-10-08T03:03:49.945Z,71.72
2022-10-08T03:06:18.460Z,71.75
2022-10-08T03:08:49.093Z,71.03
2022-10-08T03:11:17.354Z,71.43
2022-10-08T03:13:48.042Z,71.92
2022-10-08T03:16:22.529Z,71.25
2022-10-08T03:18:52.138Z,71.41
2022-10-08T03:21:20.070Z,71.14
2022-10-08T03:23:48.058Z,70.50
2022-10-08T03:26:17.950Z,69.74
2022-10-08T03:28:46.055Z,70.09
2022-10-08T03:31:13.914Z,69.16
2022-10-08T03:33:43.084Z,69.78
2022-10-08T03:36:10.894Z,69.17
2022-10-08T03:38:38.660Z,69.44
2022-10-08T03:41:06.602Z,70.48
2022-10-08T03:43:35.029Z,70.57
2022-10-08T03:46:03.426Z,70.96
2022-10-08T03:48:31.432Z,73.58
2022-10-08T03:51:02.588Z,74.20
2022-10-08T03:53:33.308Z,75.91
2022-10-08T03:56:02.293Z,78.62
2022-10-08T03:58:30.217Z,79.06
2022-10-08T04:00:58.846Z,79.34
2022-10-08T04:03:27.055Z,79.82
2022-10-08T04:05:54.837Z,79.65
2022-10-08T04:08:24.221Z,80.50
2022-10-08T04:10:52.275Z,80.39
2022-10-08T04:13:20.397Z,82.05
2022-10-08T04:15:49.190Z,83.19
2022-10-08T04:18:17.450Z,82.51
2022-10-08T04:20:45.385Z,82.46
2022-10-08T04:23:13.254Z,83.15
2022-10-08T04:25:50.012Z,83.48
2022-10-08T04:28:17.842Z,85.62
2022-10-08T04:30:55.751Z,87.42
2022-10-08T04:33:23.698Z,88.54
2022-10-08T04:35:54.166Z,87.80
2022-10-08T04:38:24.428Z,88.92
2022-10-08T04:41:03.915Z,89.33
2022-10-08T04:43:31.737Z,88.82
2022-10-08T04:45:59.562Z,88.83
2022-10-08T04:48:27.306Z,90.30
2022-10-08T04:50:56.562Z,91.22
2022-10-08T04:53:25.612Z,91.30
2022-10-08T04:55:53.598Z,92.07
2022-10-08T04:58:23.569Z,92.25
2022-10-08T05:00:51.513Z,93.03
2022-10-08T05:03:19.272Z,93.34
2022-10-08T05:05:47.598Z,93.73
2022-10-08T05:08:15.420Z,92.12
2022-10-08T05:10:48.963Z,92.23
2022-10-08T05:13:16.814Z,93.07
2022-10-08T05:15:46.133Z,92.90
2022-10-08T05:18:13.928Z,93.13
2022-10-08T05:20:41.624Z,93.30
2022-10-08T05:23:09.339Z,93.90
2022-10-08T05:25:37.091Z,93.82
2022-10-08T05:28:05.515Z,93.51
2022-10-08T05:30:33.233Z,94.39
2022-10-08T05:33:02.311Z,94.53
2022-10-08T05:35:30.051Z,93.81
2022-10-08T05:37:58.301Z,94.01
2022-10-08T05:40:26.042Z,93.46
2022-10-08T05:42:53.947Z,93.65
2022-10-08T05:45:21.661Z,93.09
2022-10-08T05:47:49.545Z,93.64
2022-10-08T05:50:18.745Z,94.33
2022-10-08T05:52:46.735Z,94.49
2022-10-08T05:55:14.604Z,94.99
2022-10-08T05:57:42.306Z,93.85
2022-10-08T06:00:11.621Z,93.51
2022-10-08T06:02:39.360Z,94.72
2022-10-08T06:05:07.799Z,95.11
2022-10-08T06:07:36.979Z,95.04
2022-10-08T06:10:05.345Z,95.49
2022-10-08T06:12:33.105Z,94.76
2022-10-08T06:15:00.861Z,94.56
2022-10-08T06:17:28.638Z,93.58
2022-10-08T06:19:56.371Z,94.17
2022-10-08T06:22:24.103Z,93.66
2022-10-08T06:24:53.205Z,91.17
2022-10-08T06:27:20.949Z,90.93
2022-10-08T06:29:48.693Z,90.89
2022-10-08T06:32:16.408Z,90.07
2022-10-08T06:34:44.152Z,89.43
2022-10-08T06:37:11.869Z,88.66
2022-10-08T06:39:39.690Z,89.81
2022-10-08T06:42:08.876Z,90.17
2022-10-08T06:44:38.527Z,90.52
2022-10-08T06:47:06.365Z,89.73
2022-10-08T06:49:34.248Z,88.70
2022-10-08T06:52:01.946Z,87.53
2022-10-08T06:54:29.730Z,88.00
2022-10-08T06:56:57.466Z,88.64
2022-10-08T06:59:26.574Z,88.57
2022-10-08T07:01:54.322Z,89.85
2022-10-08T07:04:22.297Z,89.05
2022-10-08T07:06:50.109Z,87.66
2022-10-08T07:09:17.856Z,88.05
2022-10-08T07:11:45.573Z,87.96
2022-10-08T07:14:13.492Z,87.13
2022-10-08T07:16:42.675Z,86.70
2022-10-08T07:19:10.541Z,86.56
2022-10-08T07:21:38.273Z,86.95
2022-10-08T07:24:06.326Z,87.24
2022-10-08T07:26:35.654Z,87.82
2022-10-08T07:29:05.730Z,88.26
2022-10-08T07:31:35.425Z,87.06
2022-10-08T07:34:06.295Z,86.71
2022-10-08T07:36:34.635Z,85.33
2022-10-08T07:39:04.020Z,83.77
2022-10-08T07:41:32.017Z,83.66
2022-10-08T07:44:01.382Z,83.59
2022-10-08T07:46:29.823Z,84.64
2022-10-08T07:48:59.155Z,84.70
2022-10-08T07:51:29.863Z,85.33
2022-10-08T07:54:02.341Z,85.38
2022-10-08T07:56:30.950Z,86.09
2022-10-08T07:58:59.734Z,85.80
2022-10-08T08:01:29.773Z,86.67
2022-10-08T08:03:59.353Z,87.36
2022-10-08T08:06:29.576Z,86.97
2022-10-08T08:08:57.871Z,87.70
2022-10-08T08:11:25.961Z,87.34
2022-10-08T08:13:53.950Z,86.38
2022-10-08T08:16:25.292Z,85.85
2022-10-08T08:18:55.518Z,83.90
2022-10-08T08:21:25.567Z,84.05
2022-10-08T08:23:56.468Z,84.49
2022-10-08T08:26:25.749Z,82.18
2022-10-08T08:28:54.550Z,81.60
2022-10-08T08:31:23.911Z,80.73
2022-10-08T08:33:53.850Z,79.90
2022-10-08T08:36:25.207Z,78.79
2022-10-08T08:38:54.434Z,79.67
2022-10-08T08:41:34.440Z,78.80
2022-10-08T08:44:04.667Z,77.79
2022-10-08T08:46:36.548Z,77.02
2022-10-08T08:49:12.612Z,77.89
2022-10-08T08:51:40.347Z,77.77
2022-10-08T08:54:10.011Z,79.01
2022-10-08T08:56:37.722Z,78.53
2022-10-08T08:59:19.127Z,77.53
2022-10-08T09:01:47.768Z,77.46
2022-10-08T09:04:22.857Z,77.41
2022-10-08T09:06:52.604Z,76.46
2022-10-08T09:09:26.812Z,72.13
2022-10-08T09:11:55.509Z,72.76
2022-10-08T09:14:32.299Z,72.27
2022-10-08T09:17:02.032Z,73.80
2022-10-08T09:19:30.141Z,73.81
2022-10-08T09:21:57.895Z,71.99
2022-10-08T09:24:29.685Z,70.48
2022-10-08T09:26:57.646Z,71.10
2022-10-08T09:29:33.393Z,70.89
2022-10-08T09:32:01.227Z,69.00
2022-10-08T09:34:28.979Z,70.14
2022-10-08T09:37:05.189Z,71.40
2022-10-08T09:39:35.927Z,72.38
2022-10-08T09:42:17.196Z,73.50
2022-10-08T09:44:45.963Z,72.95
2022-10-08T09:47:15.071Z,71.61
2022-10-08T09:49:42.962Z,71.29
2022-10-08T09:52:17.458Z,69.60
2022-10-08T09:54:49.593Z,67.50
2022-10-08T09:57:18.630Z,68.38
2022-10-08T09:59:51.870Z,68.67
2022-10-08T10:02:33.914Z,69.17
2022-10-08T10:05:03.911Z,67.92
2022-10-08T10:07:40.480Z,65.50
2022-10-08T10:10:19.626Z,63.92
2022-10-08T10:12:50.355Z,64.82
2022-10-08T10:15:21.210Z,62.65
2022-10-08T10:17:51.577Z,60.26
2022-10-08T10:20:23.671Z,59.07
2022-10-08T10:22:55.178Z,59.61
2022-10-08T10:25:31.556Z,59.19
2022-10-08T10:28:01.899Z,60.82
2022-10-08T10:30:30.262Z,60.63
2022-10-08T10:33:03.219Z,60.38
2022-10-08T10:35:32.758Z,56.74
2022-10-08T10:38:06.846Z,57.15
2022-10-08T10:40:41.306Z,56.48
2022-10-08T10:43:20.145Z,54.44
2022-10-08T10:45:50.444Z,54.91
2022-10-08T10:48:18.285Z,52.97
2022-10-08T10:51:01.911Z,50.56
2022-10-08T10:53:36.356Z,51.09
2022-10-08T10:56:11.729Z,50.79
2022-10-08T10:58:54.619Z,52.19
2022-10-08T11:01:30.103Z,52.00
2022-10-08T11:04:04.339Z,52.46
2022-10-08T11:06:55.536Z,51.31
2022-10-08T11:09:31.194Z,50.89
2022-10-08T11:12:03.233Z,54.30
2022-10-08T11:14:44.654Z,54.92
2022-10-08T11:17:27.375Z,53.52
2022-10-08T11:20:02.538Z,54.17
2022-10-08T11:22:34.199Z,51.75
2022-10-08T11:25:25.276Z,54.04
2022-10-08T11:28:06.155Z,52.59
2022-10-08T11:30:39.441Z,49.09
2022-10-08T11:33:07.753Z,48.87
2022-10-08T11:35:39.646Z,49.11
2022-10-08T11:38:10.697Z,47.58
2022-10-08T11:40:41.414Z,46.35
2022-10-08T11:43:14.330Z,43.96
2022-10-08T11:45:45.905Z,42.73
2022-10-08T11:48:33.685Z,43.80
2022-10-08T11:51:28.507Z,42.88
2022-10-08T11:54:15.661Z,41.39
2022-10-08T11:56:45.880Z,41.15
2022-10-08T11:59:36.969Z,40.76
2022-10-08T12:02:06.888Z,42.37
2022-10-08T12:04:36.301Z,42.44
2022-10-08T12:07:09.308Z,43.68
2022-10-08T12:10:22.809Z,42.93
2022-10-08T12:13:01.946Z,42.83
2022-10-08T12:16:09.544Z,43.14
2022-10-08T12:18:47.844Z,42.17
2022-10-08T12:21:49.080Z,43.10
2022-10-08T12:24:55.538Z,41.91
2022-10-08T12:27:34.935Z,41.19
2022-10-08T12:30:06.193Z,41.19
2022-10-08T12:32:35.386Z,41.11
2022-10-08T12:35:04.748Z,41.91
2022-10-08T12:37:43.100Z,42.50
2022-10-08T12:40:18.861Z,41.63
2022-10-08T12:42:47.494Z,42.74
2022-10-08T12:45:20.948Z,42.89
2022-10-08T12:47:52.490Z,42.50
2022-10-08T12:50:32.700Z,41.76
2022-10-08T12:53:01.059Z,40.61
2022-10-08T12:55:29.055Z,40.41
2022-10-08T12:57:56.926Z,39.85
2022-10-08T13:00:26.637Z,39.37
2022-10-08T13:03:01.812Z,39.58
2022-10-08T13:05:32.947Z,39.95
2022-10-08T13:08:19.026Z,39.26
2022-10-08T13:10:47.083Z,38.91
2022-10-08T13:13:33.604Z,39.32
2022-10-08T13:16:02.447Z,40.39
2022-10-08T13:18:31.308Z,40.98
2022-10-08T13:21:02.201Z,42.17
2022-10-08T13:23:35.715Z,42.30
2022-10-08T13:26:03.671Z,42.79
2022-10-08T13:28:59.449Z,43.36
2022-10-08T13:31:23.503Z,44.10
2022-10-08T13:33:51.428Z,42.82
2022-10-08T13:36:22.965Z,39.78
2022-10-08T13:38:50.777Z,41.30
2022-10-08T13:41:23.455Z,42.19
2022-10-08T13:43:59.278Z,41.35
2022-10-08T13:46:27.415Z,41.14
2022-10-08T13:48:55.217Z,42.81
2022-10-08T13:51:24.315Z,42.95
2022-10-08T13:53:56.833Z,43.31
2022-10-08T13:56:24.905Z,44.89
2022-10-08T13:58:52.663Z,45.04
2022-10-08T14:01:21.328Z,46.29
2022-10-08T14:03:49.197Z,48.34
2022-10-08T14:06:16.982Z,48.40
2022-10-08T14:08:46.089Z,46.59
2022-10-08T14:11:17.594Z,44.60
2022-10-08T14:13:45.423Z,42.04
2022-10-08T14:16:14.113Z,40.19
2022-10-08T14:18:41.918Z,41.45
2022-10-08T14:21:11.517Z,39.18
2022-10-08T14:23:39.228Z,38.73
2022-10-08T14:26:11.432Z,36.79
2022-10-08T14:28:39.374Z,37.40
2022-10-08T14:31:07.561Z,38.90
2022-10-08T14:33:35.369Z,40.96
2022-10-08T14:36:15.768Z,42.71
2022-10-08T14:38:43.542Z,43.00
2022-10-08T14:41:13.798Z,43.93
2022-10-08T14:43:41.589Z,44.03
2022-10-08T14:46:09.518Z,44.04
2022-10-08T14:48:39.128Z,45.06
2022-10-08T14:51:07.378Z,44.42
2022-10-08T14:53:35.136Z,43.99
2022-10-08T14:56:12.168Z,43.69
2022-10-08T14:58:42.738Z,44.02
2022-10-08T15:01:10.632Z,44.55
2022-10-08T15:03:38.387Z,44.75
2022-10-08T15:06:06.524Z,44.74
2022-10-08T15:08:34.918Z,44.13
2022-10-08T15:11:04.142Z,43.75
2022-10-08T15:13:31.878Z,44.05
2022-10-08T15:16:01.122Z,44.80
2022-10-08T15:18:31.021Z,45.73
2022-10-08T15:21:01.026Z,45.77
2022-10-08T15:23:29.074Z,45.82
2022-10-08T15:25:58.107Z,46.39
2022-10-08T15:28:27.768Z,46.23
2022-10-08T15:31:04.954Z,45.39
2022-10-08T15:33:32.788Z,45.21
2022-10-08T15:36:00.523Z,46.42
2022-10-08T15:38:28.273Z,45.87
2022-10-08T15:41:02.717Z,45.96
2022-10-08T15:43:33.907Z,46.68
2022-10-08T15:46:10.475Z,46.33
2022-10-08T15:48:38.590Z,46.19
2022-10-08T15:51:07.241Z,45.75
2022-10-08T15:53:35.438Z,46.94
2022-10-08T15:56:03.222Z,46.17
2022-10-08T15:58:49.986Z,46.11
2022-10-08T16:01:21.979Z,46.43
2022-10-08T16:03:50.909Z,46.43
2022-10-08T16:06:20.329Z,46.99
2022-10-08T16:08:48.402Z,45.75
2022-10-08T16:11:17.982Z,46.82
2022-10-08T16:13:47.599Z,46.21
2022-10-08T16:16:17.012Z,46.28
2022-10-08T16:18:46.923Z,46.29
2022-10-08T16:21:15.110Z,46.17
2022-10-08T16:23:42.816Z,45.73
2022-10-08T16:26:13.373Z,45.61
2022-10-08T16:28:42.159Z,45.75
2022-10-08T16:31:11.301Z,46.53
2022-10-08T16:33:39.243Z,47.22
2022-10-08T16:36:09.873Z,47.10
2022-10-08T16:38:39.712Z,47.88
2022-10-08T16:41:12.866Z,47.39
2022-10-08T16:43:40.720Z,48.47
2022-10-08T16:46:15.347Z,49.20
2022-10-08T16:48:43.498Z,48.13
2022-10-08T16:51:12.901Z,48.49
2022-10-08T16:53:40.666Z,49.36
2022-10-08T16:56:08.405Z,49.83
2022-10-08T16:58:36.180Z,50.02
2022-10-08T17:01:08.238Z,49.41
2022-10-08T17:03:36.540Z,50.20
2022-10-08T17:06:04.785Z,50.59
2022-10-08T17:08:33.885Z,49.85
2022-10-08T17:11:04.775Z,50.41
2022-10-08T17:13:32.917Z,50.36
2022-10-08T17:16:01.561Z,50.10
2022-10-08T17:18:29.975Z,50.84
2022-10-08T17:20:58.453Z,51.16
2022-10-08T17:23:27.624Z,51.54
2022-10-08T17:25:58.191Z,52.45
2022-10-08T17:28:28.328Z,52.26
2022-10-08T17:30:56.180Z,53.25
2022-10-08T17:33:24.071Z,53.50
2022-10-08T17:36:00.542Z,53.79
2022-10-08T17:38:28.517Z,54.51
2022-10-08T17:40:57.641Z,54.84
2022-10-08T17:43:26.078Z,54.02
2022-10-08T17:45:54.229Z,54.85
2022-10-08T17:48:22.025Z,54.89
2022-10-08T17:50:49.778Z,54.89
2022-10-08T17:53:17.558Z,54.70
2022-10-08T17:55:45.336Z,54.96
2022-10-08T17:58:14.644Z,56.21
2022-10-08T18:00:42.487Z,56.23
2022-10-08T18:03:11.503Z,56.06
2022-10-08T18:05:39.324Z,54.30
2022-10-08T18:08:07.108Z,54.05
2022-10-08T18:10:38.217Z,56.15
2022-10-08T18:13:05.910Z,56.77
2022-10-08T18:15:37.471Z,56.84
2022-10-08T18:18:05.298Z,56.68
2022-10-08T18:20:33.060Z,57.47
2022-10-08T18:23:00.819Z,58.12
2022-10-08T18:25:29.474Z,58.36
2022-10-08T18:27:57.512Z,58.40
2022-10-08T18:30:25.282Z,58.52
2022-10-08T18:32:54.471Z,59.26
2022-10-08T18:35:22.226Z,60.18
2022-10-08T18:37:50.009Z,60.41
2022-10-08T18:40:17.901Z,61.10
2022-10-08T18:42:46.132Z,61.08
2022-10-08T18:45:14.185Z,60.67
2022-10-08T18:47:41.917Z,61.83
2022-10-08T18:50:11.373Z,61.93
2022-10-08T18:52:39.111Z,61.84
2022-10-08T18:55:07.405Z,62.02
2022-10-08T18:57:35.286Z,62.95
2022-10-08T19:00:03.146Z,63.40
2022-10-08T19:02:31.058Z,64.33
2022-10-08T19:04:58.902Z,65.37
2022-10-08T19:07:27.991Z,64.99
2022-10-08T19:09:56.563Z,66.06
2022-10-08T19:12:24.254Z,65.52
2022-10-08T19:14:52.083Z,65.80
2022-10-08T19:17:19.820Z,65.80
2022-10-08T19:19:47.622Z,65.97
2022-10-08T19:22:15.465Z,66.08
2022-10-08T19:24:44.668Z,66.32
2022-10-08T19:27:12.382Z,66.20
2022-10-08T19:29:40.334Z,66.21
2022-10-08T19:32:08.348Z,66.76
2022-10-08T19:34:36.364Z,67.62
2022-10-08T19:37:04.060Z,67.40
2022-10-08T19:39:33.543Z,67.48
2022-10-08T19:42:02.643Z,68.58
2022-10-08T19:44:30.308Z,69.25
2022-10-08T19:46:58.033Z,69.33
2022-10-08T19:49:25.713Z,68.93
2022-10-08T19:51:54.133Z,68.64
2022-10-08T19:54:21.827Z,68.43
2022-10-08T19:56:49.726Z,68.54
2022-10-08T19:59:19.127Z,68.29
2022-10-08T20:01:47.022Z,68.31
2022-10-08T20:04:16.694Z,68.30
2022-10-08T20:06:44.788Z,68.52
2022-10-08T20:09:14.260Z,69.29
2022-10-08T20:11:43.245Z,69.41
2022-10-08T20:14:11.608Z,68.88
2022-10-08T20:16:42.537Z,69.63
2022-10-08T20:19:16.584Z,68.87
2022-10-08T20:21:44.486Z,69.26
2022-10-08T20:24:12.737Z,69.52
2022-10-08T20:26:42.158Z,70.61
2022-10-08T20:29:10.972Z,70.42
2022-10-08T20:31:41.281Z,70.19
2022-10-08T20:34:11.685Z,69.86
2022-10-08T20:36:39.422Z,70.49
2022-10-08T20:39:07.504Z,70.67
2022-10-08T20:41:35.291Z,71.77
2022-10-08T20:44:04.358Z,71.45
2022-10-08T20:46:32.932Z,72.01
2022-10-08T20:49:02.104Z,71.31
2022-10-08T20:51:30.764Z,70.82
2022-10-08T20:54:00.202Z,70.43
2022-10-08T20:56:28.942Z,71.12
2022-10-08T20:58:57.356Z,71.77
2022-10-08T21:01:30.183Z,71.64
2022-10-08T21:03:58.251Z,71.61
2022-10-08T21:06:28.781Z,71.39
2022-10-08T21:08:58.688Z,71.47
2022-10-08T21:11:28.801Z,71.89
2022-10-08T21:13:57.363Z,70.92
2022-10-08T21:16:26.975Z,70.83
2022-10-08T21:18:56.941Z,70.87
2022-10-08T21:21:27.732Z,70.85
2022-10-08T21:23:55.984Z,70.65
2022-10-08T21:26:25.569Z,70.97
2022-10-08T21:28:55.706Z,71.12
2022-10-08T21:31:24.034Z,71.23
2022-10-08T21:33:52.976Z,71.26
2022-10-08T21:36:22.329Z,71.74
2022-10-08T21:38:51.640Z,71.41
2022-10-08T21:41:20.973Z,71.49
2022-10-08T21:43:50.081Z,71.22
2022-10-08T21:46:19.661Z,72.24
2022-10-08T21:48:47.585Z,73.46
2022-10-08T21:51:17.461Z,73.82
2022-10-08T21:53:46.719Z,73.65
2022-10-08T21:56:17.347Z,74.34
2022-10-08T21:58:46.513Z,74.65
2022-10-08T22:01:22.955Z,75.12
2022-10-08T22:03:53.951Z,74.63
2022-10-08T22:06:21.861Z,74.86
2022-10-08T22:08:49.782Z,74.56
2022-10-08T22:11:19.211Z,74.57
2022-10-08T22:13:47.060Z,74.41
2022-10-08T22:16:17.313Z,74.33
2022-10-08T22:18:45.442Z,73.56
2022-10-08T22:21:14.840Z,73.30
2022-10-08T22:23:42.713Z,74.61
2022-10-08T22:26:13.273Z,75.44
2022-10-08T22:28:42.676Z,75.60
2022-10-08T22:31:12.407Z,75.84
2022-10-08T22:33:40.394Z,75.53
2022-10-08T22:36:09.894Z,75.40
2022-10-08T22:38:39.258Z,75.24
2022-10-08T22:41:08.513Z,75.01
2022-10-08T22:43:36.765Z,75.26
2022-10-08T22:46:07.365Z,75.05
2022-10-08T22:48:35.247Z,74.96
2022-10-08T22:51:03.306Z,76.21
2022-10-08T22:53:31.470Z,76.79
2022-10-08T22:55:59.400Z,77.27
2022-10-08T22:58:27.288Z,76.61
2022-10-08T23:00:59.303Z,75.18
2022-10-08T23:03:28.950Z,74.65
2022-10-08T23:06:04.707Z,74.68
2022-10-08T23:08:32.891Z,74.51
2022-10-08T23:11:00.642Z,74.51
2022-10-08T23:13:29.505Z,74.14
2022-10-08T23:16:02.628Z,74.88
2022-10-08T23:18:32.541Z,76.43
2022-10-08T23:21:02.985Z,77.84
2022-10-08T23:23:31.078Z,77.73
2022-10-08T23:26:00.372Z,78.11
2022-10-08T23:28:29.048Z,77.73
2022-10-08T23:30:56.848Z,77.65
2022-10-08T23:33:24.621Z,77.26
2022-10-08T23:35:56.888Z,76.83
2022-10-08T23:38:24.806Z,76.23
2022-10-08T23:40:52.630Z,75.56
2022-10-08T23:43:20.398Z,75.47
2022-10-08T23:45:48.154Z,75.24
2022-10-08T23:48:15.889Z,75.04
2022-10-08T23:50:43.604Z,74.70
2022-10-08T23:53:12.716Z,74.93
2022-10-08T23:55:40.472Z,75.68
2022-10-08T23:58:08.225Z,76.07
